createdAt,value
2019-05-20T00:00:36.338Z,52.82
2019-05-20T00:03:06.570Z,52.14
2019-05-20T00:05:36.867Z,51.43
2019-05-20T00:08:07.113Z,51.43
2019-05-20T00:10:37.492Z,51.28
2019-05-20T00:13:07.646Z,50.92
2019-05-20T00:15:38.010Z,51.04
2019-05-20T00:18:08.157Z,51.14
2019-05-20T00:20:38.357Z,51.54
2019-05-20T00:23:08.641Z,52.10
2019-05-20T00:25:38.874Z,52.48
2019-05-20T00:28:09.215Z,52.70
2019-05-20T00:30:39.422Z,53.53
2019-05-20T00:33:09.694Z,53.67
2019-05-20T00:35:39.917Z,53.92
2019-05-20T00:38:10.246Z,53.64
2019-05-20T00:40:40.401Z,53.81
2019-05-20T00:43:10.616Z,53.65
2019-05-20T00:45:41.014Z,53.72
2019-05-20T00:48:11.167Z,53.74
2019-05-20T00:50:41.430Z,54.42
2019-05-20T00:53:11.602Z,55.32
2019-05-20T00:55:41.731Z,54.53
2019-05-20T00:58:11.879Z,54.33
2019-05-20T01:00:42.240Z,54.01
2019-05-20T01:03:12.669Z,53.97
2019-05-20T01:05:42.895Z,54.15
2019-05-20T01:08:13.119Z,54.12
2019-05-20T01:10:43.569Z,53.63
2019-05-20T01:13:13.980Z,53.23
2019-05-20T01:15:44.514Z,52.84
2019-05-20T01:18:14.856Z,52.52
2019-05-20T01:20:45.405Z,52.38
2019-05-20T01:23:15.780Z,52.59
2019-05-20T01:25:46.123Z,52.75
2019-05-20T01:28:16.442Z,52.75
2019-05-20T01:30:46.914Z,52.81
2019-05-20T01:33:17.338Z,52.90
2019-05-20T01:35:47.618Z,52.81
2019-05-20T01:38:17.745Z,52.75
2019-05-20T01:40:48.117Z,52.45
2019-05-20T01:43:18.521Z,52.41
2019-05-20T01:45:48.787Z,52.69
2019-05-20T01:48:19.171Z,52.99
2019-05-20T01:50:49.622Z,53.57
2019-05-20T01:53:20.054Z,52.93
2019-05-20T01:55:50.357Z,52.30
2019-05-20T01:58:20.807Z,52.50
2019-05-20T02:00:51.122Z,52.82
2019-05-20T02:03:31.314Z,53.46
2019-05-20T02:05:53.559Z,53.31
2019-05-20T02:08:24.740Z,53.57
2019-05-20T02:10:56.725Z,53.46
2019-05-20T02:13:29.010Z,54.20
2019-05-20T02:16:06.890Z,52.99
2019-05-20T02:18:37.175Z,51.68
2019-05-20T02:21:07.545Z,49.70
2019-05-20T02:23:37.846Z,47.41
2019-05-20T02:26:08.158Z,45.21
2019-05-20T02:28:38.413Z,44.12
2019-05-20T02:31:08.637Z,40.83
2019-05-20T02:33:50.736Z,39.11
2019-05-20T02:36:10.901Z,37.69
2019-05-20T02:38:41.088Z,35.97
2019-05-20T02:41:11.368Z,35.25
2019-05-20T02:43:41.714Z,33.68
2019-05-20T02:46:11.933Z,33.12
2019-05-20T02:48:42.191Z,32.17
2019-05-20T02:51:12.391Z,31.41
2019-05-20T02:53:42.596Z,30.89
2019-05-20T02:56:12.822Z,30.52
2019-05-20T02:58:43.104Z,30.28
2019-05-20T03:01:13.316Z,29.54
2019-05-20T03:03:43.505Z,27.92
2019-05-20T03:06:13.906Z,28.48
2019-05-20T03:08:44.136Z,27.45
2019-05-20T03:11:14.500Z,26.46
2019-05-20T03:13:44.729Z,26.24
2019-05-20T03:16:15.833Z,25.82
2019-05-20T03:18:46.206Z,25.39
2019-05-20T03:21:16.486Z,25.24
2019-05-20T03:23:46.635Z,24.81
2019-05-20T03:26:16.917Z,25.40
2019-05-20T03:28:47.219Z,25.22
2019-05-20T03:31:17.464Z,25.90
2019-05-20T03:33:47.663Z,24.38
2019-05-20T03:36:17.840Z,23.26
2019-05-20T03:38:48.109Z,23.00
2019-05-20T03:41:18.337Z,23.38
2019-05-20T03:43:48.645Z,23.37
2019-05-20T03:46:18.841Z,22.81
2019-05-20T03:48:49.161Z,22.65
2019-05-20T03:51:19.372Z,21.34
2019-05-20T03:53:49.551Z,21.62
2019-05-20T03:56:19.831Z,21.16
2019-05-20T03:58:50.059Z,20.65
2019-05-20T04:01:20.241Z,20.10
2019-05-20T04:03:50.453Z,19.85
2019-05-20T04:06:20.666Z,19.46
2019-05-20T04:08:51.044Z,19.37
2019-05-20T04:11:21.404Z,19.50
2019-05-20T04:13:51.693Z,19.91
2019-05-20T04:16:21.976Z,20.25
2019-05-20T04:18:54.147Z,20.68
2019-05-20T04:21:24.098Z,20.17
2019-05-20T04:23:54.370Z,19.57
2019-05-20T04:26:24.645Z,19.97
2019-05-20T04:28:54.913Z,19.59
2019-05-20T04:31:25.167Z,19.14
2019-05-20T04:33:55.414Z,19.48
2019-05-20T04:36:25.633Z,19.75
2019-05-20T04:38:57.677Z,19.72
2019-05-20T04:41:27.903Z,19.60
2019-05-20T04:43:58.060Z,19.72
2019-05-20T04:46:28.434Z,19.54
2019-05-20T04:48:58.729Z,19.23
2019-05-20T04:51:28.975Z,18.51
2019-05-20T04:53:59.151Z,18.76
2019-05-20T04:56:29.592Z,19.11
2019-05-20T04:58:59.925Z,19.30
2019-05-20T05:01:30.461Z,19.15
2019-05-20T05:04:00.677Z,18.95
2019-05-20T05:06:30.970Z,19.48
2019-05-20T05:09:01.286Z,18.77
2019-05-20T05:11:31.605Z,19.91
2019-05-20T05:14:01.927Z,20.38
2019-05-20T05:16:32.169Z,19.51
2019-05-20T05:19:02.409Z,19.38
2019-05-20T05:21:32.693Z,18.52
2019-05-20T05:24:03.006Z,18.35
2019-05-20T05:26:33.289Z,18.93
2019-05-20T05:29:03.526Z,17.95
2019-05-20T05:31:33.861Z,17.13
2019-05-20T05:34:04.366Z,17.13
2019-05-20T05:36:35.014Z,17.54
2019-05-20T05:39:06.540Z,17.14
2019-05-20T05:41:36.817Z,16.92
2019-05-20T05:44:07.087Z,16.59
2019-05-20T05:46:37.350Z,17.12
2019-05-20T05:49:07.621Z,16.97
2019-05-20T05:51:37.820Z,16.86
2019-05-20T05:54:08.110Z,16.50
2019-05-20T05:56:38.349Z,16.42
2019-05-20T05:59:08.646Z,16.79
2019-05-20T06:01:38.909Z,16.47
2019-05-20T06:04:09.228Z,16.40
2019-05-20T06:06:39.451Z,16.55
2019-05-20T06:09:09.774Z,17.28
2019-05-20T06:11:40.092Z,17.37
2019-05-20T06:14:10.415Z,17.02
2019-05-20T06:16:40.687Z,17.02
2019-05-20T06:19:10.941Z,17.01
2019-05-20T06:21:41.086Z,17.40
2019-05-20T06:24:11.359Z,17.29
2019-05-20T06:26:41.617Z,17.49
2019-05-20T06:29:11.849Z,17.88
2019-05-20T06:31:42.113Z,17.50
2019-05-20T06:34:12.401Z,17.56
2019-05-20T06:36:44.346Z,17.46
2019-05-20T06:39:15.292Z,17.69
2019-05-20T06:41:45.547Z,18.29
2019-05-20T06:44:15.885Z,18.80
2019-05-20T06:46:46.164Z,18.49
2019-05-20T06:49:16.404Z,18.67
2019-05-20T06:51:46.689Z,18.87
2019-05-20T06:54:16.939Z,19.07
2019-05-20T06:56:47.306Z,18.95
2019-05-20T06:59:17.546Z,19.01
2019-05-20T07:01:47.811Z,19.33
2019-05-20T07:04:18.027Z,19.61
2019-05-20T07:06:48.321Z,19.94
2019-05-20T07:09:18.538Z,20.04
2019-05-20T07:11:52.673Z,20.26
2019-05-20T07:14:20.744Z,21.22
2019-05-20T07:16:51.104Z,22.15
2019-05-20T07:19:21.360Z,23.91
2019-05-20T07:21:51.586Z,25.45
2019-05-20T07:24:21.906Z,26.32
2019-05-20T07:26:52.163Z,27.23
2019-05-20T07:29:22.386Z,27.95
2019-05-20T07:31:52.620Z,28.76
2019-05-20T07:34:22.869Z,29.37
2019-05-20T07:37:02.393Z,29.52
2019-05-20T07:39:25.081Z,29.87
2019-05-20T07:41:55.333Z,30.18
2019-05-20T07:44:26.494Z,30.80
2019-05-20T07:46:56.855Z,30.35
2019-05-20T07:49:27.189Z,30.10
2019-05-20T07:51:57.807Z,29.38
2019-05-20T07:54:28.758Z,28.80
2019-05-20T07:57:01.693Z,29.09
2019-05-20T07:59:32.807Z,28.88
2019-05-20T08:02:03.101Z,29.69
2019-05-20T08:04:33.475Z,28.76
2019-05-20T08:07:24.677Z,28.31
2019-05-20T08:09:41.063Z,27.90
2019-05-20T08:12:08.021Z,28.68
2019-05-20T08:14:38.296Z,28.57
2019-05-20T08:17:08.605Z,28.25
2019-05-20T08:19:38.784Z,28.03
2019-05-20T08:22:08.944Z,29.16
2019-05-20T08:24:40.542Z,28.38
2019-05-20T08:27:10.873Z,28.96
2019-05-20T08:29:41.172Z,29.25
2019-05-20T08:32:11.446Z,29.13
2019-05-20T08:34:41.747Z,29.26
2019-05-20T08:37:12.012Z,29.09
2019-05-20T08:39:42.188Z,28.04
2019-05-20T08:42:12.424Z,28.60
2019-05-20T08:44:42.630Z,29.20
2019-05-20T08:47:12.832Z,28.32
2019-05-20T08:49:43.979Z,27.85
2019-05-20T08:52:14.703Z,27.15
2019-05-20T08:54:44.974Z,27.06
2019-05-20T08:57:15.281Z,28.04
2019-05-20T08:59:45.616Z,28.61
2019-05-20T09:02:15.875Z,28.61
2019-05-20T09:04:46.088Z,29.16
2019-05-20T09:07:16.323Z,28.22
2019-05-20T09:09:46.654Z,28.11
2019-05-20T09:12:17.078Z,26.85
2019-05-20T09:14:47.305Z,27.33
2019-05-20T09:17:17.583Z,26.66
2019-05-20T09:19:47.843Z,26.86
2019-05-20T09:22:18.093Z,26.59
2019-05-20T09:24:48.933Z,26.25
2019-05-20T09:27:19.664Z,26.92
2019-05-20T09:29:49.967Z,27.41
2019-05-20T09:32:20.294Z,28.17
2019-05-20T09:34:50.829Z,27.59
2019-05-20T09:37:21.116Z,26.45
2019-05-20T09:39:51.361Z,26.23
2019-05-20T09:42:21.638Z,26.35
2019-05-20T09:44:51.887Z,27.02
2019-05-20T09:47:22.184Z,27.85
2019-05-20T09:49:52.476Z,26.68
2019-05-20T09:52:22.751Z,27.72
2019-05-20T09:54:53.048Z,27.61
2019-05-20T09:57:24.956Z,27.63
2019-05-20T09:59:55.691Z,27.05
2019-05-20T10:02:35.305Z,26.28
2019-05-20T10:04:57.865Z,26.33
2019-05-20T10:07:28.236Z,26.39
2019-05-20T10:09:58.404Z,26.14
2019-05-20T10:12:44.688Z,26.06
2019-05-20T10:15:00.795Z,26.03
2019-05-20T10:17:31.084Z,26.12
2019-05-20T10:20:01.389Z,26.75
2019-05-20T10:22:31.704Z,26.26
2019-05-20T10:25:02.054Z,25.98
2019-05-20T10:27:32.407Z,25.60
2019-05-20T10:30:02.699Z,25.05
2019-05-20T10:32:32.967Z,25.36
2019-05-20T10:35:03.790Z,25.39
2019-05-20T10:37:34.054Z,25.48
2019-05-20T10:40:05.544Z,25.08
2019-05-20T10:42:35.865Z,25.46
2019-05-20T10:45:06.443Z,25.52
2019-05-20T10:47:36.751Z,25.10
2019-05-20T10:50:08.885Z,25.59
2019-05-20T10:52:39.129Z,25.53
2019-05-20T10:55:09.767Z,25.69
2019-05-20T10:57:40.138Z,25.60
2019-05-20T11:00:11.258Z,26.37
2019-05-20T11:02:41.548Z,26.45
2019-05-20T11:05:11.937Z,25.68
2019-05-20T11:07:42.140Z,25.56
2019-05-20T11:10:12.329Z,25.04
2019-05-20T11:12:42.550Z,25.46
2019-05-20T11:15:12.828Z,25.06
2019-05-20T11:17:43.080Z,25.16
2019-05-20T11:20:13.390Z,25.36
2019-05-20T11:22:43.624Z,24.75
2019-05-20T11:25:14.565Z,24.59
2019-05-20T11:27:44.786Z,24.20
2019-05-20T11:30:15.136Z,24.77
2019-05-20T11:32:45.678Z,24.94
2019-05-20T11:35:16.910Z,25.17
2019-05-20T11:37:47.132Z,25.62
2019-05-20T11:40:17.567Z,25.22
2019-05-20T11:42:47.834Z,24.53
2019-05-20T11:45:19.039Z,24.49
2019-05-20T11:47:49.407Z,24.87
2019-05-20T11:50:19.833Z,24.46
2019-05-20T11:52:50.019Z,25.27
2019-05-20T11:55:20.281Z,24.86
2019-05-20T11:57:50.543Z,24.91
2019-05-20T12:00:20.897Z,24.58
2019-05-20T12:02:51.228Z,25.14
2019-05-20T12:05:21.473Z,24.61
2019-05-20T12:07:51.733Z,24.84
2019-05-20T12:10:23.537Z,24.53
2019-05-20T12:12:53.983Z,24.68
2019-05-20T12:15:24.434Z,24.63
2019-05-20T12:17:54.675Z,24.09
2019-05-20T12:20:25.043Z,24.34
2019-05-20T12:22:55.305Z,24.97
2019-05-20T12:25:25.600Z,24.70
2019-05-20T12:27:55.904Z,24.29
2019-05-20T12:30:26.102Z,24.24
2019-05-20T12:33:17.246Z,24.08
2019-05-20T12:35:29.372Z,24.96
2019-05-20T12:37:59.718Z,25.32
2019-05-20T12:40:29.937Z,25.49
2019-05-20T12:43:04.162Z,25.24
2019-05-20T12:45:34.461Z,25.04
2019-05-20T12:48:05.875Z,24.93
2019-05-20T12:50:36.211Z,24.97
2019-05-20T12:53:06.434Z,24.39
2019-05-20T12:55:36.605Z,24.50
2019-05-20T12:58:06.864Z,24.67
2019-05-20T13:00:37.151Z,25.10
2019-05-20T13:03:09.016Z,25.12
2019-05-20T13:05:39.252Z,25.23
2019-05-20T13:08:09.529Z,25.05
2019-05-20T13:10:39.850Z,24.34
2019-05-20T13:13:10.167Z,24.29
2019-05-20T13:15:40.500Z,24.71
2019-05-20T13:18:10.953Z,25.20
2019-05-20T13:20:41.253Z,25.62
2019-05-20T13:23:13.909Z,25.09
2019-05-20T13:25:43.585Z,24.46
2019-05-20T13:28:13.871Z,24.54
2019-05-20T13:30:44.089Z,25.12
2019-05-20T13:33:14.310Z,25.24
2019-05-20T13:35:44.658Z,25.09
2019-05-20T13:38:14.806Z,24.95
2019-05-20T13:40:47.119Z,25.40
2019-05-20T13:43:17.041Z,24.40
2019-05-20T13:45:48.227Z,24.68
2019-05-20T13:48:18.994Z,24.97
2019-05-20T13:50:49.200Z,25.28
2019-05-20T13:53:19.553Z,25.40
2019-05-20T13:55:49.776Z,24.66
2019-05-20T13:58:20.012Z,24.75
2019-05-20T14:00:50.253Z,25.12
2019-05-20T14:03:20.574Z,25.28
2019-05-20T14:05:50.877Z,25.01
2019-05-20T14:08:21.154Z,25.12
2019-05-20T14:11:03.838Z,25.23
2019-05-20T14:13:23.634Z,24.83
2019-05-20T14:15:54.048Z,25.12
2019-05-20T14:18:24.332Z,25.10
2019-05-20T14:20:54.575Z,24.93
2019-05-20T14:23:24.856Z,24.83
2019-05-20T14:25:55.104Z,25.00
2019-05-20T14:28:25.400Z,25.13
2019-05-20T14:30:55.676Z,24.97
2019-05-20T14:33:25.850Z,24.50
2019-05-20T14:35:56.108Z,24.60
2019-05-20T14:38:26.435Z,24.00
2019-05-20T14:40:56.717Z,24.36
2019-05-20T14:43:27.133Z,24.72
2019-05-20T14:45:57.479Z,24.78
2019-05-20T14:48:27.788Z,25.34
2019-05-20T14:50:58.198Z,25.76
2019-05-20T14:53:28.445Z,25.29
2019-05-20T14:55:58.747Z,25.50
2019-05-20T14:58:29.008Z,25.01
2019-05-20T15:00:59.427Z,25.38
2019-05-20T15:03:29.711Z,25.12
2019-05-20T15:05:59.998Z,25.41
2019-05-20T15:08:33.904Z,25.32
2019-05-20T15:11:03.387Z,25.18
2019-05-20T15:13:33.638Z,25.41
2019-05-20T15:16:03.953Z,25.81
2019-05-20T15:18:34.307Z,26.00
2019-05-20T15:21:04.572Z,25.58
2019-05-20T15:23:34.810Z,25.98
2019-05-20T15:26:05.497Z,26.27
2019-05-20T15:28:35.746Z,26.65
2019-05-20T15:31:06.023Z,26.60
2019-05-20T15:33:36.307Z,26.45
2019-05-20T15:36:06.544Z,26.22
2019-05-20T15:38:36.841Z,26.44
2019-05-20T15:41:07.193Z,26.68
2019-05-20T15:43:38.771Z,26.81
2019-05-20T15:46:09.179Z,26.36
2019-05-20T15:48:39.698Z,26.29
2019-05-20T15:51:09.957Z,26.36
2019-05-20T15:53:40.202Z,26.96
2019-05-20T15:56:10.616Z,27.43
2019-05-20T15:58:40.915Z,27.18
2019-05-20T16:01:11.166Z,27.58
2019-05-20T16:03:41.400Z,28.00
2019-05-20T16:06:11.908Z,28.14
2019-05-20T16:08:42.123Z,28.08
2019-05-20T16:11:12.429Z,28.50
2019-05-20T16:13:42.676Z,28.24
2019-05-20T16:16:13.297Z,28.50
2019-05-20T16:18:43.896Z,28.66
2019-05-20T16:21:14.164Z,28.76
2019-05-20T16:23:44.385Z,28.54
2019-05-20T16:26:14.685Z,28.87
2019-05-20T16:28:44.907Z,28.91
2019-05-20T16:31:15.225Z,29.06
2019-05-20T16:33:45.566Z,29.23
2019-05-20T16:36:15.871Z,29.22
2019-05-20T16:38:46.108Z,29.31
2019-05-20T16:41:16.439Z,29.49
2019-05-20T16:43:46.797Z,29.56
2019-05-20T16:46:17.090Z,29.77
2019-05-20T16:48:47.315Z,30.05
2019-05-20T16:51:17.581Z,30.18
2019-05-20T16:53:47.871Z,30.51
2019-05-20T16:56:18.184Z,30.57
2019-05-20T16:58:48.539Z,30.76
2019-05-20T17:01:18.771Z,31.16
2019-05-20T17:03:48.988Z,31.50
2019-05-20T17:06:19.312Z,31.63
2019-05-20T17:08:49.663Z,31.80
2019-05-20T17:11:20.217Z,31.88
2019-05-20T17:13:52.054Z,31.98
2019-05-20T17:16:22.194Z,32.10
2019-05-20T17:18:52.567Z,32.27
2019-05-20T17:21:22.928Z,32.74
2019-05-20T17:23:53.317Z,32.79
2019-05-20T17:26:23.647Z,32.97
2019-05-20T17:28:53.916Z,33.27
2019-05-20T17:31:26.635Z,33.36
2019-05-20T17:33:57.767Z,33.38
2019-05-20T17:36:28.078Z,33.47
2019-05-20T17:38:58.421Z,33.62
2019-05-20T17:41:28.786Z,33.47
2019-05-20T17:43:58.951Z,33.54
2019-05-20T17:46:29.219Z,33.83
2019-05-20T17:48:59.628Z,33.76
2019-05-20T17:51:29.891Z,34.00
2019-05-20T17:54:00.187Z,34.07
2019-05-20T17:56:30.548Z,34.03
2019-05-20T17:59:00.767Z,34.20
2019-05-20T18:01:32.630Z,34.56
2019-05-20T18:04:04.750Z,35.07
2019-05-20T18:06:35.023Z,36.03
2019-05-20T18:09:10.071Z,36.97
2019-05-20T18:14:45.987Z,38.21
2019-05-20T18:17:16.409Z,38.69
2019-05-20T18:19:46.655Z,39.40
2019-05-20T18:22:16.917Z,39.60
2019-05-20T18:24:47.297Z,39.88
2019-05-20T18:27:17.739Z,40.42
2019-05-20T18:29:48.050Z,40.50
2019-05-20T18:32:18.359Z,40.89
2019-05-20T18:34:48.691Z,41.02
2019-05-20T18:37:18.956Z,40.90
2019-05-20T18:39:49.199Z,40.97
2019-05-20T18:42:19.456Z,41.16
2019-05-20T18:44:49.805Z,41.01
2019-05-20T18:47:20.063Z,41.30
2019-05-20T18:49:50.237Z,41.24
2019-05-20T18:52:20.536Z,41.11
2019-05-20T18:54:50.814Z,41.44
2019-05-20T18:57:21.081Z,41.63
2019-05-20T18:59:51.385Z,41.53
2019-05-20T19:02:21.740Z,41.75
2019-05-20T19:04:52.069Z,41.80
2019-05-20T19:07:25.323Z,41.25
2019-05-20T19:09:55.602Z,40.61
2019-05-20T19:12:25.939Z,40.74
2019-05-20T19:14:56.166Z,40.72
2019-05-20T19:17:26.350Z,40.92
2019-05-20T19:19:56.791Z,41.11
2019-05-20T19:22:27.090Z,41.49
2019-05-20T19:24:57.315Z,41.30
2019-05-20T19:27:27.517Z,41.56
2019-05-20T19:29:58.059Z,41.75
2019-05-20T19:32:28.432Z,41.75
2019-05-20T19:34:58.905Z,41.26
2019-05-20T19:37:29.247Z,41.09
2019-05-20T19:40:01.674Z,40.73
2019-05-20T19:42:32.052Z,40.57
2019-05-20T19:45:02.389Z,40.32
2019-05-20T19:47:32.701Z,40.33
2019-05-20T19:50:03.234Z,40.40
2019-05-20T19:52:33.502Z,40.69
2019-05-20T19:55:07.783Z,40.86
2019-05-20T19:57:37.947Z,41.06
2019-05-20T20:00:08.395Z,41.46
2019-05-20T20:02:38.665Z,41.69
2019-05-20T20:05:08.916Z,41.90
2019-05-20T20:07:39.177Z,42.16
2019-05-20T20:10:09.426Z,42.43
2019-05-20T20:12:39.644Z,42.64
2019-05-20T20:15:19.834Z,42.41
2019-05-20T20:17:50.058Z,41.94
2019-05-20T20:20:20.415Z,42.14
2019-05-20T20:22:50.688Z,41.69
2019-05-20T20:25:21.068Z,41.62
2019-05-20T20:27:51.290Z,41.65
2019-05-20T20:30:21.569Z,41.71
2019-05-20T20:32:51.748Z,41.62
2019-05-20T20:35:36.991Z,41.84
2019-05-20T20:37:53.993Z,42.08
2019-05-20T20:40:25.236Z,42.25
2019-05-20T20:42:55.654Z,42.35
2019-05-20T20:45:25.920Z,42.44
2019-05-20T20:47:57.200Z,42.42
2019-05-20T20:50:27.455Z,42.91
2019-05-20T20:52:58.300Z,42.75
2019-05-20T20:55:28.563Z,42.79
2019-05-20T20:57:58.815Z,43.02
2019-05-20T21:00:29.104Z,43.21
2019-05-20T21:02:59.373Z,43.48
2019-05-20T21:05:29.561Z,43.75
2019-05-20T21:07:59.759Z,44.01
2019-05-20T21:10:29.982Z,44.35
2019-05-20T21:13:00.328Z,44.50
2019-05-20T21:15:30.930Z,44.78
2019-05-20T21:18:01.746Z,44.71
2019-05-20T21:20:32.045Z,44.67
2019-05-20T21:23:02.188Z,45.10
2019-05-20T21:25:32.532Z,44.99
2019-05-20T21:28:02.699Z,45.25
2019-05-20T21:30:33.012Z,45.29
2019-05-20T21:33:09.346Z,45.16
2019-05-20T21:35:35.368Z,45.26
2019-05-20T21:38:05.745Z,45.24
2019-05-20T21:40:35.962Z,45.47
2019-05-20T21:43:06.213Z,45.69
2019-05-20T21:45:36.371Z,45.87
2019-05-20T21:48:06.599Z,45.71
2019-05-20T21:50:36.807Z,45.76
2019-05-20T21:53:07.050Z,45.63
2019-05-20T21:55:37.368Z,45.78
2019-05-20T21:58:07.684Z,45.86
2019-05-20T22:00:42.680Z,46.28
2019-05-20T22:03:23.893Z,46.46
2019-05-20T22:05:45.041Z,46.57
2019-05-20T22:08:16.244Z,46.71
2019-05-20T22:10:46.570Z,47.03
2019-05-20T22:13:16.865Z,47.23
2019-05-20T22:15:47.090Z,47.46
2019-05-20T22:18:17.349Z,47.38
2019-05-20T22:20:47.600Z,47.14
2019-05-20T22:23:25.226Z,47.06
2019-05-20T22:25:55.456Z,46.86
2019-05-20T22:28:25.687Z,46.70
2019-05-20T22:30:56.039Z,46.99
2019-05-20T22:33:40.462Z,46.84
2019-05-20T22:35:58.175Z,46.61
2019-05-20T22:38:28.404Z,46.30
2019-05-20T22:40:58.626Z,46.29
2019-05-20T22:43:28.811Z,46.23
2019-05-20T22:45:58.997Z,46.56
2019-05-20T22:48:29.255Z,46.51
2019-05-20T22:50:59.414Z,46.82
2019-05-20T22:53:29.633Z,47.02
2019-05-20T22:55:59.798Z,46.96
2019-05-20T22:58:29.941Z,47.05
2019-05-20T23:01:00.154Z,46.96
2019-05-20T23:03:30.365Z,47.08
2019-05-20T23:06:00.589Z,47.08
2019-05-20T23:08:30.862Z,47.48
2019-05-20T23:11:01.013Z,47.71
2019-05-20T23:13:31.224Z,47.85
2019-05-20T23:16:01.452Z,47.69
2019-05-20T23:18:31.676Z,48.14
2019-05-20T23:21:01.997Z,48.30
2019-05-20T23:23:32.169Z,48.46
2019-05-20T23:26:02.464Z,48.78
2019-05-20T23:28:32.616Z,48.99
2019-05-20T23:31:02.922Z,48.68
2019-05-20T23:33:33.091Z,48.79
2019-05-20T23:36:03.312Z,48.80
2019-05-20T23:38:33.678Z,48.95
2019-05-20T23:41:03.868Z,49.15
2019-05-20T23:43:34.131Z,49.32
2019-05-20T23:46:04.374Z,49.50
2019-05-20T23:48:34.545Z,50.01
2019-05-20T23:51:04.777Z,50.11
2019-05-20T23:53:34.964Z,50.48
2019-05-20T23:56:05.290Z,50.56
2019-05-20T23:58:35.519Z,50.34
